Time;durP1;ratioP1;P1;durP2;ratioP2;P2;SDS_P1;SDS_P2;PMS_P1;PMS_P2;Temp;Humidity;BMP_temperature;BMP_pressure;BME280_temperature;BME280_humidity;BME280_pressure;Samples;Min_cycle;Max_cycle;Signal;HPM_P1;HPM_P2
2023/02/07 00:02:22;;;;;;;13.70;7.18;;;;;;;8.10;47.82;99703.22;5090635;28;20035;-46
2023/02/07 00:04:49;;;;;;;17.33;8.27;;;;;;;8.04;48.42;99716.91;5090500;28;20024;-46
2023/02/07 00:07:16;;;;;;;10.07;8.02;;;;;;;7.88;47.78;99716.84;5091721;28;20020;-46
2023/02/07 00:09:43;;;;;;;10.18;7.57;;;;;;;7.84;48.59;99731.22;5090476;28;20112;-46
2023/02/07 00:12:20;;;;;;;12.73;7.57;;;;;;;7.91;49.10;99732.25;5090772;28;20028;-47
2023/02/07 00:15:01;;;;;;;12.43;7.93;;;;;;;8.07;48.90;99702.69;5091857;28;20065;-47
2023/02/07 00:17:39;;;;;;;14.82;7.78;;;;;;;8.10;47.90;99703.22;5090464;28;20043;-47
2023/02/07 00:20:17;;;;;;;9.65;6.97;;;;;;;8.03;48.47;99722.28;5090541;28;20016;-47
2023/02/07 00:22:50;;;;;;;11.63;6.90;;;;;;;8.10;47.76;99726.75;5090499;28;20534;-46
2023/02/07 00:25:24;;;;;;;9.50;8.35;;;;;;;7.95;47.53;99738.78;5091580;28;20028;-47
2023/02/07 00:27:57;;;;;;;9.73;6.90;;;;;;;7.65;48.86;99730.47;5090251;28;20506;-47
2023/02/07 00:30:29;;;;;;;10.52;7.40;;;;;;;7.62;48.47;99736.00;5094382;28;20062;-46
2023/02/07 00:33:07;;;;;;;10.25;6.90;;;;;;;7.55;48.53;99737.59;5095622;28;20026;-48
2023/02/07 00:35:42;;;;;;;12.68;7.82;;;;;;;7.51;48.85;99738.91;5094256;28;20032;-47
2023/02/07 00:38:14;;;;;;;12.75;8.07;;;;;;;7.45;49.27;99739.50;5095677;28;20020;-46
2023/02/07 00:40:50;;;;;;;11.77;8.05;;;;;;;7.36;49.46;99721.19;5095579;28;20531;-48
2023/02/07 00:43:31;;;;;;;11.27;8.15;;;;;;;7.39;49.11;99712.22;5094206;28;20039;-47
2023/02/07 00:46:22;;;;;;;12.10;7.07;;;;;;;7.47;49.31;99709.66;5094005;28;20020;-46
2023/02/07 00:48:51;;;;;;;10.38;7.70;;;;;;;7.44;49.43;99717.78;5095360;28;20063;-47
2023/02/07 00:51:30;;;;;;;10.65;8.35;;;;;;;6.97;49.64;99737.22;5095220;28;20020;-48
2023/02/07 00:54:05;;;;;;;13.05;7.88;;;;;;;6.83;51.31;99744.75;5093930;28;20105;-47
2023/02/07 00:56:40;;;;;;;12.60;8.23;;;;;;;6.88;52.18;99743.34;5094000;28;20027;-47
2023/02/07 00:59:20;;;;;;;13.40;8.15;;;;;;;6.97;51.56;99733.78;5095113;28;20040;-47
2023/02/07 01:01:53;;;;;;;13.30;8.27;;;;;;;6.96;51.74;99717.31;5095061;28;20017;-47
2023/02/07 01:04:26;;;;;;;11.27;7.68;;;;;;;6.95;51.50;99692.19;5093733;28;20028;-46
2023/02/07 01:06:54;;;;;;;12.98;8.40;;;;;;;6.84;51.06;99694.19;5094983;28;20016;-47
2023/02/07 01:09:29;;;;;;;12.43;8.52;;;;;;;6.69;50.97;99701.75;5093681;28;20036;-46
2023/02/07 01:11:56;;;;;;;17.80;8.60;;;;;;;6.70;51.35;99713.81;5093608;28;20405;-47
2023/02/07 01:14:31;;;;;;;14.45;8.82;;;;;;;6.85;51.48;99720.16;5094868;28;20488;-48
2023/02/07 01:17:13;;;;;;;16.83;9.05;;;;;;;6.98;52.15;99731.03;5094759;28;20130;-47
2023/02/07 01:19:58;;;;;;;14.82;8.25;;;;;;;7.22;51.56;99726.94;5094662;28;20028;-47
2023/02/07 01:22:40;;;;;;;12.63;8.30;;;;;;;7.20;50.74;99721.06;5093418;28;20428;-47
2023/02/07 01:25:22;;;;;;;14.30;8.68;;;;;;;7.28;51.75;99717.69;5094574;28;20254;-47
2023/02/07 01:27:57;;;;;;;10.80;8.05;;;;;;;7.18;50.59;99696.88;5094355;28;20055;-48
2023/02/07 01:33:40;;;;;;;12.77;9.10;;;;;;;6.80;51.37;99709.31;5094380;28;20119;-47
2023/02/07 01:36:15;;;;;;;12.48;9.23;;;;;;;6.72;51.91;99710.09;5094434;28;20028;-48
2023/02/07 01:38:52;;;;;;;12.10;8.10;;;;;;;6.94;51.93;99705.38;5091777;28;20573;-47
2023/02/07 01:41:35;;;;;;;13.52;8.13;;;;;;;7.08;51.08;99706.59;5094226;28;20489;-47
2023/02/07 01:44:22;;;;;;;13.82;8.15;;;;;;;7.13;50.87;99720.03;5094302;28;20028;-47
2023/02/07 01:47:03;;;;;;;15.43;8.13;;;;;;;7.22;50.60;99711.28;5092728;28;20054;-47
2023/02/07 01:49:39;;;;;;;10.95;8.35;;;;;;;7.25;50.56;99716.19;5094194;28;20095;-47
2023/02/07 01:52:30;;;;;;;10.48;7.95;;;;;;;7.12;50.39;99713.16;5092909;28;20482;-46
2023/02/07 01:55:27;;;;;;;14.52;9.20;;;;;;;6.84;50.57;99722.91;5092720;28;20062;-47
2023/02/07 01:58:11;;;;;;;22.60;17.95;;;;;;;6.54;50.68;99722.31;5094004;28;20028;-47
2023/02/07 02:00:51;;;;;;;13.25;8.52;;;;;;;6.16;51.35;99730.25;5093929;28;20054;-47
2023/02/07 02:03:25;;;;;;;12.63;9.13;;;;;;;5.83;52.00;99730.78;5092565;28;20024;-46
2023/02/07 02:06:02;;;;;;;11.07;8.57;;;;;;;5.68;53.29;99718.25;5093817;28;20024;-47
2023/02/07 02:08:46;;;;;;;9.93;8.25;;;;;;;5.62;53.40;99716.22;5094103;28;20397;-47
2023/02/07 02:11:53;;;;;;;10.25;8.00;;;;;;;5.69;53.86;99700.81;5093764;28;20048;-47
2023/02/07 02:15:02;;;;;;;14.77;11.05;;;;;;;5.72;53.24;99687.53;5093748;28;20035;-47
2023/02/07 02:18:13;;;;;;;10.65;8.18;;;;;;;5.81;53.79;99694.47;5093647;28;20036;-47
2023/02/07 02:21:25;;;;;;;12.98;8.15;;;;;;;5.80;53.29;99706.66;5093431;28;20020;-47
2023/02/07 02:24:33;;;;;;;13.18;8.63;;;;;;;5.81;54.82;99717.91;5093464;28;20024;-47
2023/02/07 02:28:03;;;;;;;245.23;206.00;;;;;;;6.03;53.50;99716.72;5093113;28;20044;-47
2023/02/07 02:31:06;;;;;;;1231.63;643.22;;;;;;;6.27;53.74;99721.38;5091958;28;20084;-46
2023/02/07 02:34:08;;;;;;;329.80;200.20;;;;;;;6.36;52.40;99733.56;5092050;28;20024;-47
2023/02/07 02:36:50;;;;;;;96.53;66.70;;;;;;;6.34;51.73;99737.28;5093287;28;20035;-47
2023/02/07 02:39:55;;;;;;;158.75;114.50;;;;;;;6.39;52.87;99740.25;5091907;28;20419;-48
2023/02/07 02:43:00;;;;;;;71.90;54.97;;;;;;;6.57;52.83;99729.84;5092089;28;20043;-47
2023/02/07 02:46:04;;;;;;;48.65;30.88;;;;;;;6.61;51.62;99733.78;5093008;28;20081;-47
2023/02/07 02:48:50;;;;;;;32.35;22.75;;;;;;;6.71;52.02;99744.97;5092864;28;20020;-47
2023/02/07 02:51:33;;;;;;;22.83;16.95;;;;;;;6.79;51.79;99739.81;5093003;28;20439;-47
2023/02/07 02:54:02;;;;;;;20.20;15.43;;;;;;;6.93;52.77;99735.88;5092938;28;20020;-47
2023/02/07 02:57:14;;;;;;;19.67;13.80;;;;;;;7.06;52.00;99739.88;5092878;28;20040;-47
2023/02/07 03:00:40;;;;;;;18.95;11.13;;;;;;;7.07;51.03;99742.34;5091500;28;20020;-48
2023/02/07 03:03:53;;;;;;;55.95;49.15;;;;;;;6.83;51.04;99740.34;5091388;28;20048;-46
2023/02/07 03:07:05;;;;;;;20.80;17.50;;;;;;;6.85;51.39;99727.97;5092625;28;20389;-47
2023/02/07 03:13:40;;;;;;;14.52;10.25;;;;;;;7.03;51.36;99730.56;5092738;28;20106;-46
2023/02/07 03:16:50;;;;;;;14.55;10.13;;;;;;;7.08;52.06;99728.31;5092593;28;20501;-47
2023/02/07 03:19:56;;;;;;;11.05;8.90;;;;;;;7.20;51.29;99724.50;5092206;28;20064;-47
2023/02/07 03:22:47;;;;;;;11.15;8.85;;;;;;;7.03;50.43;99722.75;5092405;28;20028;-47
2023/02/07 03:25:25;;;;;;;13.15;8.63;;;;;;;6.88;50.90;99725.06;5091057;28;20032;-48
2023/02/07 03:27:55;;;;;;;11.45;8.18;;;;;;;6.95;50.59;99725.28;5092019;28;20510;-46
2023/02/07 03:30:42;;;;;;;11.35;8.20;;;;;;;7.12;50.75;99728.81;5070718;28;20437;-46
2023/02/07 03:33:48;;;;;;;11.85;9.85;;;;;;;7.13;50.79;99727.88;5092399;28;20051;-46
2023/02/07 03:37:07;;;;;;;12.73;8.57;;;;;;;7.09;51.23;99722.13;5090822;28;20024;-46
2023/02/07 03:39:52;;;;;;;11.32;8.20;;;;;;;7.07;50.66;99731.09;5083969;28;20096;-48
2023/02/07 03:45:45;;;;;;;10.00;7.77;;;;;;;6.69;49.99;99746.09;5089644;28;20062;-46
2023/02/07 03:48:25;;;;;;;11.18;8.60;;;;;;;6.55;50.42;99744.81;5090745;28;20110;-47
2023/02/07 03:50:59;;;;;;;10.70;7.82;;;;;;;6.50;50.76;99736.59;5092040;28;20020;-46
2023/02/07 03:53:26;;;;;;;15.15;12.20;;;;;;;6.42;50.51;99742.59;5090702;28;20054;-46
2023/02/07 03:55:53;;;;;;;12.88;9.40;;;;;;;6.28;50.63;99751.72;5090700;28;20493;-46
2023/02/07 03:58:20;;;;;;;18.95;12.75;;;;;;;6.15;50.92;99756.44;5091972;28;20032;-46
2023/02/07 04:00:48;;;;;;;40.50;27.05;;;;;;;6.07;51.44;99764.97;5091110;28;20028;-46
2023/02/07 04:03:15;;;;;;;15.18;9.20;;;;;;;6.10;51.30;99759.50;5091915;28;20036;-45
2023/02/07 04:05:44;;;;;;;13.13;9.27;;;;;;;6.24;51.02;99768.63;5091814;28;20099;-46
2023/02/07 04:08:12;;;;;;;13.15;8.68;;;;;;;6.20;50.51;99762.88;5092112;28;20024;-45
2023/02/07 04:10:41;;;;;;;15.93;11.10;;;;;;;6.09;51.08;99770.06;5090823;28;20546;-47
2023/02/07 04:13:07;;;;;;;15.02;8.90;;;;;;;6.05;51.02;99773.91;5091788;28;20032;-46
2023/02/07 04:15:53;;;;;;;19.08;12.10;;;;;;;5.96;51.07;99778.22;5091777;28;20110;-47
2023/02/07 04:18:38;;;;;;;;;;;;;;;5.93;50.84;99792.28;5092230;28;20028;-47
2023/02/07 04:21:26;;;;;;;15.23;11.43;;;;;;;5.98;51.50;99786.72;5090406;28;20014;-46
2023/02/07 04:24:18;;;;;;;16.23;11.82;;;;;;;5.94;51.37;99790.53;5091575;28;20023;-47
2023/02/07 04:26:45;;;;;;;14.13;9.05;;;;;;;5.79;51.64;99798.81;5091289;28;20558;-46
2023/02/07 04:29:22;;;;;;;11.55;8.98;;;;;;;5.79;51.40;99801.41;5091562;28;20036;-48
2023/02/07 04:32:08;;;;;;;9.60;7.75;;;;;;;5.75;51.46;99802.63;5090284;28;20490;-47
2023/02/07 04:34:51;;;;;;;12.35;8.90;;;;;;;5.68;51.57;99796.38;5090610;28;20024;-47
2023/02/07 04:37:31;;;;;;;21.50;11.43;;;;;;;5.83;52.61;99808.94;5090206;28;20040;-47
2023/02/07 04:39:57;;;;;;;16.90;9.07;;;;;;;5.90;52.32;99813.44;5091516;28;20071;-46
2023/02/07 04:42:33;;;;;;;10.18;9.02;;;;;;;6.15;53.71;99816.41;5090189;28;20030;-48
2023/02/07 04:45:16;;;;;;;13.80;8.30;;;;;;;6.28;53.24;99826.47;5091531;28;20024;-47
2023/02/07 04:48:01;;;;;;;17.63;9.07;;;;;;;6.34;54.22;99829.34;5091422;28;20028;-48
2023/02/07 04:50:49;;;;;;;15.85;9.35;;;;;;;6.35;54.98;99838.78;5090144;28;20028;-47
2023/02/07 04:53:18;;;;;;;14.10;9.27;;;;;;;6.32;54.87;99840.91;5091366;28;20032;-47
2023/02/07 04:55:57;;;;;;;11.73;7.65;;;;;;;6.35;55.41;99854.44;5091447;28;20035;-48
2023/02/07 04:58:30;;;;;;;12.65;8.43;;;;;;;6.20;54.71;99854.09;5091409;28;20033;-47
2023/02/07 05:01:18;;;;;;;11.25;8.57;;;;;;;6.13;54.85;99860.03;5091332;28;20024;-46
2023/02/07 05:03:45;;;;;;;13.32;8.68;;;;;;;6.04;54.33;99856.50;5091404;28;20516;-46
2023/02/07 05:06:12;;;;;;;11.35;8.57;;;;;;;5.93;54.81;99859.22;5090024;28;20039;-46
2023/02/07 05:08:39;;;;;;;11.48;8.07;;;;;;;5.80;54.26;99864.75;5091307;28;20016;-46
2023/02/07 05:11:06;;;;;;;12.20;8.57;;;;;;;5.69;54.62;99867.50;5089971;28;20574;-46
2023/02/07 05:13:34;;;;;;;11.65;8.60;;;;;;;5.79;54.91;99876.97;5093978;28;20024;-46
2023/02/07 05:16:03;;;;;;;12.18;8.27;;;;;;;5.95;54.66;99880.78;5094839;28;20012;-46
2023/02/07 05:18:51;;;;;;;9.70;8.18;;;;;;;5.95;53.93;99884.19;5094878;28;20040;-46
2023/02/07 05:21:30;;;;;;;18.20;8.77;;;;;;;5.80;53.84;99883.00;5093550;28;20016;-47
2023/02/07 05:24:13;;;;;;;12.95;9.55;;;;;;;5.84;54.15;99891.34;5093344;28;20028;-47
2023/02/07 05:26:47;;;;;;;11.38;8.82;;;;;;;5.72;54.98;99894.09;5094360;28;20455;-46
2023/02/07 05:29:20;;;;;;;16.00;9.35;;;;;;;5.84;55.08;99897.38;5094662;28;20020;-46
2023/02/07 05:35:06;;;;;;;15.40;9.25;;;;;;;5.93;55.35;99909.53;5094587;28;20058;-47
2023/02/07 05:37:41;;;;;;;12.05;10.00;;;;;;;5.87;55.05;99912.72;5093091;28;20387;-47
2023/02/07 05:40:13;;;;;;;;;;;;;;;5.73;56.36;99913.16;5093474;28;20023;-46
2023/02/07 05:42:49;;;;;;;15.02;9.38;;;;;;;5.70;56.42;99916.84;5093133;28;19908;-46
2023/02/07 05:45:25;;;;;;;22.67;10.45;;;;;;;5.61;57.91;99922.88;5094371;28;20032;-45
2023/02/07 05:47:58;;;;;;;12.45;10.50;;;;;;;5.59;59.43;99935.22;5092899;28;20031;-46
2023/02/07 05:50:27;;;;;;;17.02;10.60;;;;;;;5.65;59.64;99937.28;5094177;28;20645;-46
2023/02/07 05:52:55;;;;;;;18.00;10.45;;;;;;;5.60;60.84;99940.28;5092840;28;20532;-46
2023/02/07 05:55:33;;;;;;;21.38;11.93;;;;;;;5.59;61.97;99943.03;5094053;28;20076;-47
2023/02/07 05:58:00;;;;;;;16.13;10.70;;;;;;;5.56;62.16;99945.91;5093983;28;20020;-46
2023/02/07 06:00:27;;;;;;;14.60;12.00;;;;;;;5.59;63.55;99949.09;5093850;28;20408;-46
2023/02/07 06:02:57;;;;;;;16.25;10.70;;;;;;;5.64;64.35;99942.63;5092686;28;20020;-47
2023/02/07 06:05:30;;;;;;;14.13;10.52;;;;;;;5.71;64.74;99952.34;5075739;28;20031;-47
2023/02/07 06:07:58;;;;;;;15.45;11.00;;;;;;;5.75;64.97;99953.72;5092423;28;20028;-46
2023/02/07 06:10:24;;;;;;;20.67;11.25;;;;;;;5.78;65.17;99956.06;5093784;28;20036;-46
2023/02/07 06:12:52;;;;;;;17.85;10.85;;;;;;;5.84;65.95;99962.50;5092477;28;20394;-46
2023/02/07 06:15:19;;;;;;;17.42;11.48;;;;;;;5.85;65.93;99963.31;5094043;28;20035;-46
2023/02/07 06:17:46;;;;;;;13.38;9.45;;;;;;;5.76;65.14;99959.75;5092341;28;20020;-46
2023/02/07 06:20:13;;;;;;;13.68;9.60;;;;;;;5.42;63.14;99965.38;5093567;28;20020;-46
2023/02/07 06:22:41;;;;;;;15.93;10.90;;;;;;;5.26;64.92;99955.47;5092295;28;20024;-46
2023/02/07 06:25:10;;;;;;;16.05;11.70;;;;;;;5.28;65.50;99965.75;5092776;28;20024;-46
2023/02/07 06:27:48;;;;;;;20.08;10.65;;;;;;;5.32;66.30;99965.34;5090285;28;20071;-46
2023/02/07 06:30:14;;;;;;;16.10;10.27;;;;;;;5.35;65.85;99972.06;5092154;28;20097;-46
2023/02/07 06:32:47;;;;;;;16.55;12.05;;;;;;;5.32;65.69;99973.16;5093327;28;20024;-46
2023/02/07 06:35:14;;;;;;;24.05;11.10;;;;;;;5.10;65.93;99978.59;5091906;28;20062;-46
2023/02/07 06:37:40;;;;;;;18.10;10.68;;;;;;;5.04;65.92;99976.53;5093330;28;20027;-46
2023/02/07 06:40:26;;;;;;;24.08;10.48;;;;;;;4.92;66.59;99979.22;5091827;28;20032;-46
2023/02/07 06:42:54;;;;;;;35.28;13.50;;;;;;;4.83;66.40;99981.78;5093260;28;20489;-46
2023/02/07 06:45:36;;;;;;;20.63;11.07;;;;;;;4.78;67.10;99984.78;5091846;28;20028;-47
2023/02/07 06:48:08;;;;;;;15.50;11.38;;;;;;;4.79;66.72;99986.44;5091626;28;20031;-47
2023/02/07 06:50:51;;;;;;;21.15;11.23;;;;;;;4.77;67.32;99988.34;5091668;28;20601;-47
2023/02/07 06:53:19;;;;;;;36.45;12.23;;;;;;;4.75;66.90;100000.66;5058324;28;20446;-46
2023/02/07 06:55:56;;;;;;;18.65;10.23;;;;;;;4.67;66.80;99998.69;5091593;28;20085;-47
2023/02/07 06:58:24;;;;;;;27.33;12.20;;;;;;;4.57;66.97;100011.66;5091551;28;20026;-46
2023/02/07 07:00:51;;;;;;;23.23;11.52;;;;;;;4.42;66.83;100020.72;5091476;28;20036;-46
2023/02/07 07:03:19;;;;;;;22.95;10.95;;;;;;;4.35;67.22;100032.59;5091488;28;20020;-46
2023/02/07 07:05:45;;;;;;;29.92;14.80;;;;;;;4.36;67.53;100036.81;5092625;28;20028;-46
2023/02/07 07:08:17;;;;;;;34.55;13.93;;;;;;;4.50;67.96;100033.91;5091301;28;20085;-46
2023/02/07 07:10:45;;;;;;;23.67;12.27;;;;;;;4.86;68.36;100036.16;5091363;28;20032;-46
2023/02/07 07:13:12;;;;;;;22.65;12.70;;;;;;;5.29;67.37;100030.69;5091571;28;20111;-46
2023/02/07 07:15:40;;;;;;;29.30;13.00;;;;;;;5.63;66.60;100038.16;5091255;28;20038;-46
2023/02/07 07:18:07;;;;;;;32.63;12.30;;;;;;;6.22;65.86;100038.19;5092531;28;20078;-46
2023/02/07 07:20:35;;;;;;;23.30;11.05;;;;;;;6.71;64.84;100042.38;5091165;28;20024;-46
2023/02/07 07:23:02;;;;;;;22.83;11.77;;;;;;;7.05;64.13;100048.88;5092491;28;20017;-46
2023/02/07 07:25:38;;;;;;;23.63;11.13;;;;;;;6.80;63.44;100049.34;5092370;28;20493;-47
2023/02/07 07:28:17;;;;;;;43.65;11.75;;;;;;;6.59;65.20;100049.53;5088278;28;20386;-47
2023/02/07 07:30:50;;;;;;;24.55;10.35;;;;;;;6.48;64.30;100062.75;5092254;28;20046;-47
2023/02/07 07:33:17;;;;;;;26.23;11.55;;;;;;;6.53;64.38;100055.31;5091092;28;20631;-46
2023/02/07 07:35:44;;;;;;;42.08;11.35;;;;;;;7.15;63.87;100066.13;5092210;28;20051;-46
2023/02/07 07:38:12;;;;;;;17.48;10.88;;;;;;;8.00;61.90;100065.88;5091198;28;20032;-46
2023/02/07 07:40:40;;;;;;;35.33;13.07;;;;;;;8.71;60.68;100058.94;5090827;28;20027;-46
2023/02/07 07:43:07;;;;;;;21.23;10.43;;;;;;;9.16;58.71;100063.13;5092192;28;20013;-47
2023/02/07 07:45:34;;;;;;;22.98;10.85;;;;;;;8.93;58.54;100068.06;5090808;28;20036;-46
2023/02/07 07:48:01;;;;;;;16.85;11.30;;;;;;;8.50;58.27;100075.81;5090758;28;20027;-46
2023/02/07 07:50:28;;;;;;;17.92;10.88;;;;;;;8.48;58.08;100075.16;5092069;28;20468;-46
2023/02/07 07:52:55;;;;;;;15.10;10.13;;;;;;;9.30;57.08;100085.28;5092089;28;20073;-46
2023/02/07 07:55:24;;;;;;;14.25;10.40;;;;;;;9.97;56.32;100080.06;5090680;28;20085;-46
2023/02/07 07:57:52;;;;;;;19.75;10.73;;;;;;;10.48;55.03;100086.00;5091993;28;20108;-46
2023/02/07 08:00:19;;;;;;;11.90;10.00;;;;;;;11.17;53.71;100096.09;5091939;28;20049;-47
2023/02/07 08:02:45;;;;;;;20.00;9.95;;;;;;;11.60;50.30;100097.38;5090594;28;20024;-46
2023/02/07 08:05:12;;;;;;;20.33;10.95;;;;;;;11.74;49.36;100087.94;5090520;28;20034;-47
2023/02/07 08:07:40;;;;;;;21.23;11.30;;;;;;;12.03;49.49;100096.16;5091829;28;20102;-47
2023/02/07 08:10:07;;;;;;;16.70;9.95;;;;;;;12.10;48.50;100095.31;5091846;28;20032;-46
2023/02/07 08:12:34;;;;;;;18.50;12.25;;;;;;;12.37;48.12;100093.97;5090812;28;20028;-47
2023/02/07 08:15:02;;;;;;;19.73;11.93;;;;;;;12.93;46.52;100090.13;5091848;28;20052;-47
2023/02/07 08:17:29;;;;;;;18.02;11.07;;;;;;;13.34;45.62;100095.81;5090412;28;20032;-47
2023/02/07 08:19:57;;;;;;;14.90;11.45;;;;;;;12.94;43.48;100100.50;5090410;28;20028;-46
2023/02/07 08:22:26;;;;;;;12.80;9.38;;;;;;;11.97;43.14;100110.84;5091665;28;20427;-46
2023/02/07 08:24:53;;;;;;;15.25;10.77;;;;;;;11.12;45.09;100116.78;5090415;28;20039;-46
2023/02/07 08:27:22;;;;;;;15.73;11.55;;;;;;;11.16;46.88;100115.44;5091323;28;20051;-46
2023/02/07 08:29:51;;;;;;;19.65;10.60;;;;;;;11.73;45.54;100120.50;5090344;28;20052;-46
2023/02/07 08:32:35;;;;;;;22.00;10.88;;;;;;;12.20;46.45;100110.88;5090332;28;20030;-47
2023/02/07 08:35:17;;;;;;;16.77;10.63;;;;;;;12.79;45.52;100118.09;5090294;28;20464;-47
2023/02/07 08:37:50;;;;;;;27.83;19.73;;;;;;;13.52;43.69;100107.78;5090259;28;20117;-47
2023/02/07 08:40:21;;;;;;;21.58;11.50;;;;;;;14.27;42.12;100103.91;5091851;28;20032;-47
2023/02/07 08:42:49;;;;;;;19.30;11.13;;;;;;;14.95;39.61;100111.38;5091591;28;20099;-47
2023/02/07 08:45:16;;;;;;;14.77;10.65;;;;;;;15.45;38.75;100114.69;5091484;28;20528;-47
2023/02/07 08:47:44;;;;;;;16.75;10.73;;;;;;;15.97;37.07;100115.91;5089846;28;20035;-47
2023/02/07 08:50:24;;;;;;;18.73;10.70;;;;;;;16.40;35.90;100122.72;5094010;28;20111;-48
2023/02/07 08:52:50;;;;;;;14.38;9.30;;;;;;;16.56;35.15;100124.16;5094113;28;20016;-47
2023/02/07 08:55:22;;;;;;;14.25;9.77;;;;;;;16.76;34.81;100121.47;5093997;28;20024;-45
2023/02/07 08:57:49;;;;;;;13.63;9.02;;;;;;;16.15;34.59;100118.00;5095199;28;20031;-45
2023/02/07 09:00:16;;;;;;;16.25;10.27;;;;;;;15.18;35.10;100116.41;5093976;28;20877;-45
2023/02/07 09:02:44;;;;;;;12.50;9.80;;;;;;;14.98;36.91;100122.38;5095196;28;20020;-45
2023/02/07 09:05:11;;;;;;;18.55;9.88;;;;;;;13.84;37.44;100142.66;5093716;28;20089;-46
2023/02/07 09:07:49;;;;;;;15.65;10.68;;;;;;;12.79;39.36;100145.25;5094920;28;20028;-48
2023/02/07 09:10:30;;;;;;;23.88;14.20;;;;;;;12.35;40.20;100142.50;5095202;28;20074;-48
2023/02/07 09:12:57;;;;;;;19.98;10.55;;;;;;;11.93;39.80;100146.38;5093632;28;20026;-47
2023/02/07 09:15:25;;;;;;;27.58;14.38;;;;;;;11.63;41.60;100154.06;5093524;28;20061;-46
2023/02/07 09:17:54;;;;;;;18.27;11.50;;;;;;;12.59;39.91;100155.47;5110550;28;20513;-47
2023/02/07 09:20:24;;;;;;;21.17;10.93;;;;;;;12.52;40.30;100165.09;5094825;28;20028;-46
2023/02/07 09:25:40;;;;;;;18.42;10.02;;;;;;;13.16;39.32;100153.34;5094811;28;20035;-47
2023/02/07 09:28:07;;;;;;;13.93;10.00;;;;;;;14.02;37.69;100156.25;5094315;28;20468;-46
2023/02/07 09:30:34;;;;;;;20.08;10.63;;;;;;;14.43;37.17;100150.38;5093655;28;20496;-46
2023/02/07 09:33:01;;;;;;;17.13;10.75;;;;;;;14.67;36.58;100153.66;5094636;28;20028;-47
2023/02/07 09:35:29;;;;;;;22.50;10.85;;;;;;;14.61;36.87;100162.34;5094581;28;20074;-47
2023/02/07 09:37:56;;;;;;;14.63;9.20;;;;;;;14.62;36.32;100164.00;5094478;28;20036;-47
2023/02/07 09:40:25;;;;;;;20.25;10.65;;;;;;;14.79;35.97;100170.66;5094522;28;20024;-47
2023/02/07 09:43:19;;;;;;;12.98;9.43;;;;;;;15.09;35.96;100166.00;5094503;28;20043;-47
2023/02/07 09:45:54;;;;;;;13.30;9.73;;;;;;;16.58;33.88;100169.84;5091534;28;20036;-47
2023/02/07 09:48:52;;;;;;;17.73;9.65;;;;;;;18.01;32.90;100160.34;5094667;28;20032;-45
2023/02/07 09:51:22;;;;;;;18.58;10.02;;;;;;;18.83;30.88;100160.44;5094309;28;20028;-45
2023/02/07 09:53:53;;;;;;;17.35;9.35;;;;;;;18.70;29.96;100170.13;5094405;28;20397;-46
2023/02/07 09:56:26;;;;;;;20.63;9.63;;;;;;;17.58;30.69;100177.69;5094177;28;20028;-46
2023/02/07 09:59:37;;;;;;;16.67;10.02;;;;;;;16.72;31.66;100181.22;5091670;28;20031;-45
2023/02/07 10:02:58;;;;;;;19.02;11.02;;;;;;;18.16;31.59;100182.97;5093859;28;20024;-46
2023/02/07 10:06:13;;;;;;;17.95;10.27;;;;;;;19.60;29.22;100179.53;5093823;28;20032;-46
2023/02/07 10:08:40;;;;;;;11.90;9.38;;;;;;;20.53;27.17;100170.28;5088145;28;20040;-46
2023/02/07 10:11:26;;;;;;;17.95;9.98;;;;;;;21.06;26.70;100178.47;5093856;28;20032;-46
2023/02/07 10:14:17;;;;;;;13.80;9.00;;;;;;;21.08;25.40;100176.38;5093876;28;20024;-45
2023/02/07 10:16:56;;;;;;;13.27;9.10;;;;;;;19.54;26.82;100175.09;5093736;28;20056;-45
2023/02/07 10:19:57;;;;;;;17.58;9.32;;;;;;;19.82;27.09;100171.06;5093774;28;20451;-45
2023/02/07 10:22:35;;;;;;;11.20;9.05;;;;;;;20.30;27.05;100175.56;5072416;28;20051;-45
2023/02/07 10:25:36;;;;;;;14.38;10.00;;;;;;;20.92;26.66;100169.88;5092306;28;20469;-45
2023/02/07 10:28:17;;;;;;;11.38;8.82;;;;;;;21.64;25.09;100164.25;5091775;28;20047;-46
2023/02/07 10:31:00;;;;;;;10.40;8.95;;;;;;;22.31;24.82;100152.13;5093426;28;20468;-46
2023/02/07 10:33:38;;;;;;;10.55;9.02;;;;;;;22.82;24.21;100150.28;5093496;28;20528;-46
2023/02/07 10:36:18;;;;;;;13.60;8.88;;;;;;;22.99;23.66;100154.81;5093358;28;20034;-46
2023/02/07 10:38:55;;;;;;;16.35;8.60;;;;;;;23.24;23.33;100154.34;5093623;28;20054;-46
2023/02/07 10:41:38;;;;;;;14.77;8.82;;;;;;;23.72;22.68;100150.94;5093273;28;20058;-45
2023/02/07 10:44:21;;;;;;;9.95;8.80;;;;;;;24.04;22.27;100141.38;5093159;28;20103;-46
2023/02/07 10:47:19;;;;;;;14.98;8.75;;;;;;;23.89;22.24;100142.03;5091725;28;20028;-47
2023/02/07 10:49:59;;;;;;;10.27;8.05;;;;;;;23.78;22.24;100145.66;5091756;28;20127;-47
2023/02/07 10:52:52;;;;;;;10.73;9.15;;;;;;;23.88;22.13;100140.41;5091671;28;20120;-45
2023/02/07 10:55:56;;;;;;;15.02;8.70;;;;;;;23.71;22.29;100145.81;5092881;28;20032;-46
2023/02/07 10:58:42;;;;;;;11.13;8.48;;;;;;;23.40;21.62;100137.44;5093078;28;20157;-45
2023/02/07 11:01:37;;;;;;;12.73;8.35;;;;;;;23.12;21.86;100146.47;5091541;28;20042;-45
2023/02/07 11:04:23;;;;;;;11.77;8.50;;;;;;;22.08;22.19;100153.06;5091494;28;20036;-45
2023/02/07 11:07:20;;;;;;;25.48;10.10;;;;;;;20.77;23.21;100172.22;5092650;28;20028;-45
2023/02/07 11:10:24;;;;;;;9.20;8.25;;;;;;;19.71;24.55;100162.00;5091433;28;20122;-46
2023/02/07 11:12:56;;;;;;;11.02;8.65;;;;;;;19.26;25.52;100160.44;5075375;28;20063;-45
2023/02/07 11:15:47;;;;;;;15.38;9.85;;;;;;;19.53;25.29;100154.81;5091294;28;20020;-45
2023/02/07 11:18:39;;;;;;;11.65;8.98;;;;;;;19.26;24.49;100165.75;5091393;28;20024;-45
2023/02/07 11:21:33;;;;;;;18.10;9.32;;;;;;;18.91;25.02;100165.47;5092431;28;20038;-45
2023/02/07 11:24:30;;;;;;;13.25;9.35;;;;;;;19.36;25.17;100158.06;5092507;28;20032;-45
2023/02/07 11:27:18;;;;;;;10.13;8.50;;;;;;;20.26;24.68;100150.38;5091822;28;20092;-45
2023/02/07 11:30:07;;;;;;;18.60;9.48;;;;;;;21.05;23.74;100150.19;5092362;28;20111;-45
2023/02/07 11:32:38;;;;;;;11.25;8.98;;;;;;;21.69;22.75;100147.50;5091078;28;20573;-46
2023/02/07 11:35:08;;;;;;;13.38;8.82;;;;;;;21.90;22.85;100151.38;5092301;28;20051;-45
2023/02/07 11:37:37;;;;;;;10.30;8.02;;;;;;;21.95;22.24;100146.13;5092256;28;20032;-46
2023/02/07 11:40:36;;;;;;;16.55;9.80;;;;;;;22.14;22.91;100147.53;5092166;28;20035;-45
2023/02/07 11:43:16;;;;;;;17.00;10.68;;;;;;;22.82;22.50;100141.41;5092235;28;20108;-46
2023/02/07 11:48:59;;;;;;;11.50;8.98;;;;;;;22.60;21.61;100144.06;5092356;28;20039;-45
2023/02/07 11:51:32;;;;;;;10.52;8.60;;;;;;;22.88;21.28;100135.91;5090617;28;20420;-46
2023/02/07 11:54:04;;;;;;;11.38;8.85;;;;;;;22.87;21.57;100142.31;5092019;28;20511;-46
2023/02/07 11:57:10;;;;;;;12.25;9.30;;;;;;;22.72;21.26;100136.75;5091402;28;20043;-46
2023/02/07 11:59:47;;;;;;;14.07;10.02;;;;;;;22.28;21.65;100141.94;5091770;28;20039;-45
2023/02/07 12:02:27;;;;;;;8.90;8.10;;;;;;;22.19;21.81;100141.47;5091940;28;20113;-45
2023/02/07 12:04:55;;;;;;;14.55;8.48;;;;;;;22.71;21.77;100140.47;5092012;28;20024;-45
2023/02/07 12:07:55;;;;;;;10.70;9.02;;;;;;;22.64;21.20;100140.66;5091711;28;20059;-46
2023/02/07 12:10:48;;;;;;;19.23;9.52;;;;;;;22.69;21.65;100135.34;5091920;28;20106;-46
2023/02/07 12:13:40;;;;;;;10.52;8.57;;;;;;;22.56;21.77;100140.22;5090482;28;20421;-46
2023/02/07 12:16:37;;;;;;;12.80;8.60;;;;;;;22.48;21.65;100136.91;5092148;28;20076;-45
2023/02/07 12:19:32;;;;;;;15.85;8.30;;;;;;;22.36;21.45;100133.50;5090445;28;20028;-46
2023/02/07 12:22:34;;;;;;;12.50;7.90;;;;;;;22.13;21.02;100127.22;5092381;28;20032;-47
2023/02/07 12:25:38;;;;;;;10.10;7.53;;;;;;;21.99;21.20;100136.56;5094560;28;20069;-45
2023/02/07 12:28:41;;;;;;;9.27;7.63;;;;;;;21.96;21.59;100137.06;5094169;28;20044;-46
2023/02/07 12:31:55;;;;;;;10.00;6.68;;;;;;;21.27;21.21;100134.34;5095683;28;20405;-45
2023/02/07 12:34:50;;;;;;;9.18;6.63;;;;;;;21.02;21.34;100138.09;5094406;28;20521;-45
2023/02/07 12:37:59;;;;;;;13.05;7.75;;;;;;;20.91;21.50;100137.06;5094360;28;20024;-45
2023/02/07 12:40:35;;;;;;;10.50;7.90;;;;;;;20.85;21.62;100140.66;5095598;28;20453;-45